sensor_id;sensor_type;location;lat;lon;timestamp;P1;durP1;ratioP1;P2;durP2;ratioP2
22614;SDS011;11474;50.790;0.298;2023-12-22T00:00:07;25.25;;;5.40;;
22614;SDS011;11474;50.790;0.298;2023-12-22T00:02:34;21.38;;;5.13;;
22614;SDS011;11474;50.790;0.298;2023-12-22T00:05:00;24.35;;;4.85;;
22614;SDS011;11474;50.790;0.298;2023-12-22T00:07:26;24.00;;;4.60;;
22614;SDS011;11474;50.790;0.298;2023-12-22T00:09:53;26.73;;;4.80;;
22614;SDS011;11474;50.790;0.298;2023-12-22T00:12:19;25.02;;;4.47;;
22614;SDS011;11474;50.790;0.298;2023-12-22T00:14:45;24.70;;;5.10;;
22614;SDS011;11474;50.790;0.298;2023-12-22T00:17:11;22.85;;;4.43;;
22614;SDS011;11474;50.790;0.298;2023-12-22T00:19:37;19.35;;;4.53;;
22614;SDS011;11474;50.790;0.298;2023-12-22T00:22:03;22.20;;;4.78;;
22614;SDS011;11474;50.790;0.298;2023-12-22T00:24:30;21.48;;;4.35;;
22614;SDS011;11474;50.790;0.298;2023-12-22T00:26:56;23.70;;;4.63;;
22614;SDS011;11474;50.790;0.298;2023-12-22T00:29:22;26.63;;;5.00;;
22614;SDS011;11474;50.790;0.298;2023-12-22T00:31:48;24.30;;;4.38;;
22614;SDS011;11474;50.790;0.298;2023-12-22T00:34:14;24.75;;;4.85;;
22614;SDS011;11474;50.790;0.298;2023-12-22T00:36:40;21.73;;;4.00;;
22614;SDS011;11474;50.790;0.298;2023-12-22T00:39:06;19.85;;;4.15;;
22614;SDS011;11474;50.790;0.298;2023-12-22T00:41:32;24.58;;;4.57;;
22614;SDS011;11474;50.790;0.298;2023-12-22T00:43:58;24.23;;;4.75;;
22614;SDS011;11474;50.790;0.298;2023-12-22T00:46:24;25.95;;;4.20;;
22614;SDS011;11474;50.790;0.298;2023-12-22T00:48:53;16.90;;;3.63;;
22614;SDS011;11474;50.790;0.298;2023-12-22T00:51:19;21.55;;;4.75;;
22614;SDS011;11474;50.790;0.298;2023-12-22T00:53:45;24.80;;;4.78;;
22614;SDS011;11474;50.790;0.298;2023-12-22T00:56:11;26.23;;;4.97;;
22614;SDS011;11474;50.790;0.298;2023-12-22T00:58:38;27.88;;;4.65;;
22614;SDS011;11474;50.790;0.298;2023-12-22T01:01:05;22.10;;;4.80;;
22614;SDS011;11474;50.790;0.298;2023-12-22T01:03:31;25.40;;;4.57;;
22614;SDS011;11474;50.790;0.298;2023-12-22T01:05:57;25.27;;;4.40;;
22614;SDS011;11474;50.790;0.298;2023-12-22T01:08:23;28.20;;;4.35;;
22614;SDS011;11474;50.790;0.298;2023-12-22T01:10:49;25.80;;;4.57;;
22614;SDS011;11474;50.790;0.298;2023-12-22T01:13:15;21.98;;;4.65;;
22614;SDS011;11474;50.790;0.298;2023-12-22T01:15:41;23.67;;;4.45;;
22614;SDS011;11474;50.790;0.298;2023-12-22T01:18:08;21.42;;;4.65;;
22614;SDS011;11474;50.790;0.298;2023-12-22T01:20:34;20.30;;;4.15;;
22614;SDS011;11474;50.790;0.298;2023-12-22T01:23:01;22.45;;;4.47;;
22614;SDS011;11474;50.790;0.298;2023-12-22T01:25:27;18.42;;;4.18;;
22614;SDS011;11474;50.790;0.298;2023-12-22T01:27:53;23.55;;;4.30;;
22614;SDS011;11474;50.790;0.298;2023-12-22T01:30:19;20.85;;;3.90;;
22614;SDS011;11474;50.790;0.298;2023-12-22T01:32:45;21.98;;;3.72;;
22614;SDS011;11474;50.790;0.298;2023-12-22T01:35:11;19.15;;;4.10;;
22614;SDS011;11474;50.790;0.298;2023-12-22T01:37:37;19.60;;;4.53;;
22614;SDS011;11474;50.790;0.298;2023-12-22T01:40:03;20.40;;;3.92;;
22614;SDS011;11474;50.790;0.298;2023-12-22T01:42:30;21.25;;;3.80;;
22614;SDS011;11474;50.790;0.298;2023-12-22T01:44:56;19.93;;;4.30;;
22614;SDS011;11474;50.790;0.298;2023-12-22T01:47:22;19.70;;;3.80;;
22614;SDS011;11474;50.790;0.298;2023-12-22T01:49:48;22.05;;;4.32;;
22614;SDS011;11474;50.790;0.298;2023-12-22T01:52:15;20.53;;;4.10;;
22614;SDS011;11474;50.790;0.298;2023-12-22T01:54:41;19.17;;;3.83;;
22614;SDS011;11474;50.790;0.298;2023-12-22T01:57:07;25.02;;;4.78;;
22614;SDS011;11474;50.790;0.298;2023-12-22T01:59:33;20.25;;;4.10;;
22614;SDS011;11474;50.790;0.298;2023-12-22T02:02:01;18.70;;;4.13;;
22614;SDS011;11474;50.790;0.298;2023-12-22T02:04:27;20.85;;;3.67;;
22614;SDS011;11474;50.790;0.298;2023-12-22T02:06:53;24.73;;;4.30;;
22614;SDS011;11474;50.790;0.298;2023-12-22T02:09:19;21.42;;;4.20;;
22614;SDS011;11474;50.790;0.298;2023-12-22T02:11:45;18.55;;;3.90;;
22614;SDS011;11474;50.790;0.298;2023-12-22T02:14:11;16.48;;;3.45;;
22614;SDS011;11474;50.790;0.298;2023-12-22T02:16:45;21.02;;;4.10;;
22614;SDS011;11474;50.790;0.298;2023-12-22T02:19:18;18.02;;;3.72;;
22614;SDS011;11474;50.790;0.298;2023-12-22T02:22:04;19.45;;;3.95;;
22614;SDS011;11474;50.790;0.298;2023-12-22T02:24:31;19.42;;;4.03;;
22614;SDS011;11474;50.790;0.298;2023-12-22T02:27:01;24.20;;;4.38;;
22614;SDS011;11474;50.790;0.298;2023-12-22T02:29:30;23.30;;;4.00;;
22614;SDS011;11474;50.790;0.298;2023-12-22T02:31:59;25.48;;;3.72;;
22614;SDS011;11474;50.790;0.298;2023-12-22T02:34:26;26.15;;;4.47;;
22614;SDS011;11474;50.790;0.298;2023-12-22T02:36:53;25.60;;;4.45;;
22614;SDS011;11474;50.790;0.298;2023-12-22T02:39:19;23.20;;;4.25;;
22614;SDS011;11474;50.790;0.298;2023-12-22T02:41:46;24.17;;;3.80;;
22614;SDS011;11474;50.790;0.298;2023-12-22T02:44:12;23.30;;;3.85;;
22614;SDS011;11474;50.790;0.298;2023-12-22T02:46:38;24.40;;;3.53;;
22614;SDS011;11474;50.790;0.298;2023-12-22T02:49:06;22.63;;;3.70;;
22614;SDS011;11474;50.790;0.298;2023-12-22T02:51:33;19.50;;;3.78;;
22614;SDS011;11474;50.790;0.298;2023-12-22T02:53:59;18.45;;;3.42;;
22614;SDS011;11474;50.790;0.298;2023-12-22T02:56:25;16.27;;;3.50;;
22614;SDS011;11474;50.790;0.298;2023-12-22T02:58:51;27.17;;;3.97;;
22614;SDS011;11474;50.790;0.298;2023-12-22T03:01:17;12.93;;;2.80;;
22614;SDS011;11474;50.790;0.298;2023-12-22T03:03:43;17.63;;;2.93;;
22614;SDS011;11474;50.790;0.298;2023-12-22T03:06:09;18.50;;;3.03;;
22614;SDS011;11474;50.790;0.298;2023-12-22T03:08:35;17.42;;;3.10;;
22614;SDS011;11474;50.790;0.298;2023-12-22T03:11:01;16.50;;;3.05;;
22614;SDS011;11474;50.790;0.298;2023-12-22T03:13:27;24.75;;;4.22;;
22614;SDS011;11474;50.790;0.298;2023-12-22T03:15:53;19.30;;;3.20;;
22614;SDS011;11474;50.790;0.298;2023-12-22T03:18:19;18.87;;;3.13;;
22614;SDS011;11474;50.790;0.298;2023-12-22T03:20:45;14.52;;;3.05;;
22614;SDS011;11474;50.790;0.298;2023-12-22T03:23:11;21.50;;;3.57;;
22614;SDS011;11474;50.790;0.298;2023-12-22T03:25:38;16.70;;;3.03;;
22614;SDS011;11474;50.790;0.298;2023-12-22T03:28:04;20.10;;;3.20;;
22614;SDS011;11474;50.790;0.298;2023-12-22T03:30:30;18.88;;;3.15;;
22614;SDS011;11474;50.790;0.298;2023-12-22T03:32:56;15.17;;;3.13;;
22614;SDS011;11474;50.790;0.298;2023-12-22T03:35:22;17.95;;;3.10;;
22614;SDS011;11474;50.790;0.298;2023-12-22T03:37:48;23.55;;;4.10;;
22614;SDS011;11474;50.790;0.298;2023-12-22T03:40:14;15.95;;;3.33;;
22614;SDS011;11474;50.790;0.298;2023-12-22T03:42:40;17.00;;;3.20;;
22614;SDS011;11474;50.790;0.298;2023-12-22T03:45:06;18.08;;;3.75;;
22614;SDS011;11474;50.790;0.298;2023-12-22T03:47:32;19.00;;;3.60;;
22614;SDS011;11474;50.790;0.298;2023-12-22T03:49:59;16.40;;;2.97;;
22614;SDS011;11474;50.790;0.298;2023-12-22T03:52:25;19.17;;;2.90;;
22614;SDS011;11474;50.790;0.298;2023-12-22T03:54:51;23.35;;;4.57;;
22614;SDS011;11474;50.790;0.298;2023-12-22T03:57:17;14.52;;;3.17;;
22614;SDS011;11474;50.790;0.298;2023-12-22T03:59:43;18.27;;;3.20;;
22614;SDS011;11474;50.790;0.298;2023-12-22T04:02:09;17.60;;;3.22;;
22614;SDS011;11474;50.790;0.298;2023-12-22T04:04:39;16.70;;;4.03;;
22614;SDS011;11474;50.790;0.298;2023-12-22T04:07:05;19.88;;;3.53;;
22614;SDS011;11474;50.790;0.298;2023-12-22T04:09:31;17.70;;;3.55;;
22614;SDS011;11474;50.790;0.298;2023-12-22T04:11:57;17.75;;;3.80;;
22614;SDS011;11474;50.790;0.298;2023-12-22T04:14:23;18.50;;;3.22;;
22614;SDS011;11474;50.790;0.298;2023-12-22T04:16:49;17.67;;;2.97;;
22614;SDS011;11474;50.790;0.298;2023-12-22T04:19:17;15.98;;;3.20;;
22614;SDS011;11474;50.790;0.298;2023-12-22T04:21:43;18.55;;;3.47;;
22614;SDS011;11474;50.790;0.298;2023-12-22T04:24:10;10.45;;;2.40;;
22614;SDS011;11474;50.790;0.298;2023-12-22T04:26:36;15.52;;;2.80;;
22614;SDS011;11474;50.790;0.298;2023-12-22T04:29:02;16.13;;;3.05;;
22614;SDS011;11474;50.790;0.298;2023-12-22T04:31:28;15.98;;;3.20;;
22614;SDS011;11474;50.790;0.298;2023-12-22T04:33:54;15.93;;;2.92;;
22614;SDS011;11474;50.790;0.298;2023-12-22T04:36:20;15.60;;;2.88;;
22614;SDS011;11474;50.790;0.298;2023-12-22T04:38:46;17.35;;;2.90;;
22614;SDS011;11474;50.790;0.298;2023-12-22T04:41:12;17.42;;;2.97;;
22614;SDS011;11474;50.790;0.298;2023-12-22T04:43:38;17.75;;;3.03;;
22614;SDS011;11474;50.790;0.298;2023-12-22T04:46:05;22.43;;;3.43;;
22614;SDS011;11474;50.790;0.298;2023-12-22T04:48:31;13.95;;;3.20;;
22614;SDS011;11474;50.790;0.298;2023-12-22T04:50:58;16.83;;;3.15;;
22614;SDS011;11474;50.790;0.298;2023-12-22T04:53:24;15.52;;;2.60;;
22614;SDS011;11474;50.790;0.298;2023-12-22T04:55:50;15.88;;;2.95;;
22614;SDS011;11474;50.790;0.298;2023-12-22T04:58:16;15.50;;;2.83;;
22614;SDS011;11474;50.790;0.298;2023-12-22T05:00:42;15.85;;;2.92;;
22614;SDS011;11474;50.790;0.298;2023-12-22T05:03:08;18.33;;;3.45;;
22614;SDS011;11474;50.790;0.298;2023-12-22T05:05:35;20.50;;;3.50;;
22614;SDS011;11474;50.790;0.298;2023-12-22T05:08:01;22.77;;;3.58;;
22614;SDS011;11474;50.790;0.298;2023-12-22T05:10:27;16.40;;;3.55;;
22614;SDS011;11474;50.790;0.298;2023-12-22T05:12:54;14.98;;;3.42;;
22614;SDS011;11474;50.790;0.298;2023-12-22T05:15:20;18.77;;;3.50;;
22614;SDS011;11474;50.790;0.298;2023-12-22T05:17:46;20.42;;;4.18;;
22614;SDS011;11474;50.790;0.298;2023-12-22T05:20:12;16.23;;;3.07;;
22614;SDS011;11474;50.790;0.298;2023-12-22T05:22:39;16.65;;;2.85;;
22614;SDS011;11474;50.790;0.298;2023-12-22T05:25:05;20.15;;;3.88;;
22614;SDS011;11474;50.790;0.298;2023-12-22T05:27:32;13.65;;;2.95;;
22614;SDS011;11474;50.790;0.298;2023-12-22T05:29:58;16.83;;;3.15;;
22614;SDS011;11474;50.790;0.298;2023-12-22T05:32:26;16.13;;;3.72;;
22614;SDS011;11474;50.790;0.298;2023-12-22T05:34:53;19.55;;;3.00;;
22614;SDS011;11474;50.790;0.298;2023-12-22T05:37:19;13.80;;;2.95;;
22614;SDS011;11474;50.790;0.298;2023-12-22T05:39:45;19.30;;;3.08;;
22614;SDS011;11474;50.790;0.298;2023-12-22T05:42:11;12.93;;;2.78;;
22614;SDS011;11474;50.790;0.298;2023-12-22T05:44:37;15.80;;;2.60;;
22614;SDS011;11474;50.790;0.298;2023-12-22T05:47:04;14.75;;;2.50;;
22614;SDS011;11474;50.790;0.298;2023-12-22T05:49:30;10.80;;;3.10;;
22614;SDS011;11474;50.790;0.298;2023-12-22T05:51:56;13.77;;;2.67;;
22614;SDS011;11474;50.790;0.298;2023-12-22T05:54:22;24.08;;;3.83;;
22614;SDS011;11474;50.790;0.298;2023-12-22T05:56:50;13.98;;;2.65;;
22614;SDS011;11474;50.790;0.298;2023-12-22T05:59:17;17.73;;;2.85;;
22614;SDS011;11474;50.790;0.298;2023-12-22T06:01:43;17.20;;;3.00;;
22614;SDS011;11474;50.790;0.298;2023-12-22T06:04:09;14.65;;;2.63;;
22614;SDS011;11474;50.790;0.298;2023-12-22T06:06:36;15.40;;;2.95;;
22614;SDS011;11474;50.790;0.298;2023-12-22T06:09:03;11.73;;;2.50;;
22614;SDS011;11474;50.790;0.298;2023-12-22T06:11:29;15.55;;;2.90;;
22614;SDS011;11474;50.790;0.298;2023-12-22T06:13:55;8.90;;;2.20;;
22614;SDS011;11474;50.790;0.298;2023-12-22T06:16:21;12.82;;;2.25;;
22614;SDS011;11474;50.790;0.298;2023-12-22T06:18:47;12.63;;;2.20;;
22614;SDS011;11474;50.790;0.298;2023-12-22T06:21:14;11.32;;;2.33;;
22614;SDS011;11474;50.790;0.298;2023-12-22T06:23:40;10.40;;;2.53;;
22614;SDS011;11474;50.790;0.298;2023-12-22T06:26:09;12.25;;;2.55;;
22614;SDS011;11474;50.790;0.298;2023-12-22T06:28:36;11.40;;;2.60;;
22614;SDS011;11474;50.790;0.298;2023-12-22T06:31:03;9.05;;;2.50;;
22614;SDS011;11474;50.790;0.298;2023-12-22T06:33:29;11.95;;;2.35;;
22614;SDS011;11474;50.790;0.298;2023-12-22T06:35:55;12.40;;;2.33;;
22614;SDS011;11474;50.790;0.298;2023-12-22T06:38:21;13.80;;;2.60;;
22614;SDS011;11474;50.790;0.298;2023-12-22T06:40:47;10.80;;;2.40;;
22614;SDS011;11474;50.790;0.298;2023-12-22T06:43:14;13.88;;;2.45;;
22614;SDS011;11474;50.790;0.298;2023-12-22T06:45:40;11.20;;;2.38;;
22614;SDS011;11474;50.790;0.298;2023-12-22T06:48:07;14.18;;;2.10;;
22614;SDS011;11474;50.790;0.298;2023-12-22T06:50:34;9.55;;;2.05;;
22614;SDS011;11474;50.790;0.298;2023-12-22T06:53:02;10.05;;;2.17;;
22614;SDS011;11474;50.790;0.298;2023-12-22T06:55:29;12.48;;;2.42;;
22614;SDS011;11474;50.790;0.298;2023-12-22T06:57:55;8.57;;;1.92;;
22614;SDS011;11474;50.790;0.298;2023-12-22T07:00:21;9.30;;;1.92;;
22614;SDS011;11474;50.790;0.298;2023-12-22T07:02:47;11.15;;;2.05;;
22614;SDS011;11474;50.790;0.298;2023-12-22T07:07:50;8.75;;;2.05;;
22614;SDS011;11474;50.790;0.298;2023-12-22T07:10:16;10.30;;;2.20;;
22614;SDS011;11474;50.790;0.298;2023-12-22T07:12:42;14.40;;;2.17;;
22614;SDS011;11474;50.790;0.298;2023-12-22T07:15:08;9.13;;;2.00;;
22614;SDS011;11474;50.790;0.298;2023-12-22T07:17:35;14.13;;;2.60;;
22614;SDS011;11474;50.790;0.298;2023-12-22T07:20:02;12.52;;;2.20;;
22614;SDS011;11474;50.790;0.298;2023-12-22T07:22:28;11.90;;;2.17;;
22614;SDS011;11474;50.790;0.298;2023-12-22T07:24:54;12.60;;;2.53;;
22614;SDS011;11474;50.790;0.298;2023-12-22T07:27:21;12.40;;;2.60;;
22614;SDS011;11474;50.790;0.298;2023-12-22T07:29:47;11.23;;;2.10;;
22614;SDS011;11474;50.790;0.298;2023-12-22T07:32:14;10.88;;;2.38;;
22614;SDS011;11474;50.790;0.298;2023-12-22T07:34:40;9.15;;;2.20;;
22614;SDS011;11474;50.790;0.298;2023-12-22T07:37:06;10.15;;;2.33;;
22614;SDS011;11474;50.790;0.298;2023-12-22T07:39:33;9.23;;;2.25;;
22614;SDS011;11474;50.790;0.298;2023-12-22T07:41:59;11.50;;;2.30;;
22614;SDS011;11474;50.790;0.298;2023-12-22T07:44:25;10.50;;;2.33;;
22614;SDS011;11474;50.790;0.298;2023-12-22T07:46:57;7.40;;;1.77;;
22614;SDS011;11474;50.790;0.298;2023-12-22T07:49:24;9.38;;;2.05;;
22614;SDS011;11474;50.790;0.298;2023-12-22T07:51:51;8.23;;;2.20;;
22614;SDS011;11474;50.790;0.298;2023-12-22T07:54:17;6.80;;;2.00;;
22614;SDS011;11474;50.790;0.298;2023-12-22T07:56:43;10.98;;;1.75;;
22614;SDS011;11474;50.790;0.298;2023-12-22T07:59:09;6.50;;;1.63;;
22614;SDS011;11474;50.790;0.298;2023-12-22T08:01:35;8.50;;;2.00;;
22614;SDS011;11474;50.790;0.298;2023-12-22T08:04:01;6.82;;;1.75;;
22614;SDS011;11474;50.790;0.298;2023-12-22T08:06:27;9.57;;;2.00;;
22614;SDS011;11474;50.790;0.298;2023-12-22T08:08:53;6.75;;;1.65;;
22614;SDS011;11474;50.790;0.298;2023-12-22T08:11:20;6.80;;;2.10;;
22614;SDS011;11474;50.790;0.298;2023-12-22T08:13:49;3.47;;;1.10;;
22614;SDS011;11474;50.790;0.298;2023-12-22T08:16:15;5.93;;;1.63;;
22614;SDS011;11474;50.790;0.298;2023-12-22T08:18:41;4.38;;;1.50;;
22614;SDS011;11474;50.790;0.298;2023-12-22T08:21:07;6.10;;;1.65;;
22614;SDS011;11474;50.790;0.298;2023-12-22T08:23:33;4.20;;;1.25;;
22614;SDS011;11474;50.790;0.298;2023-12-22T08:25:59;5.90;;;1.60;;
22614;SDS011;11474;50.790;0.298;2023-12-22T08:28:25;4.78;;;1.67;;
22614;SDS011;11474;50.790;0.298;2023-12-22T08:30:52;7.60;;;1.67;;
22614;SDS011;11474;50.790;0.298;2023-12-22T08:33:18;7.20;;;1.60;;
22614;SDS011;11474;50.790;0.298;2023-12-22T08:35:44;5.50;;;1.40;;
22614;SDS011;11474;50.790;0.298;2023-12-22T08:38:10;6.63;;;1.50;;
22614;SDS011;11474;50.790;0.298;2023-12-22T08:40:38;7.95;;;1.70;;
22614;SDS011;11474;50.790;0.298;2023-12-22T08:43:04;6.38;;;1.80;;
22614;SDS011;11474;50.790;0.298;2023-12-22T08:45:31;6.43;;;1.60;;
22614;SDS011;11474;50.790;0.298;2023-12-22T08:47:57;5.82;;;1.20;;
22614;SDS011;11474;50.790;0.298;2023-12-22T08:50:26;7.30;;;1.70;;
22614;SDS011;11474;50.790;0.298;2023-12-22T08:52:54;10.05;;;1.88;;
22614;SDS011;11474;50.790;0.298;2023-12-22T08:55:20;10.30;;;1.63;;
22614;SDS011;11474;50.790;0.298;2023-12-22T08:57:46;7.07;;;1.73;;
22614;SDS011;11474;50.790;0.298;2023-12-22T09:00:12;9.63;;;2.20;;
22614;SDS011;11474;50.790;0.298;2023-12-22T09:02:39;8.20;;;1.90;;
22614;SDS011;11474;50.790;0.298;2023-12-22T09:05:05;8.85;;;1.73;;
22614;SDS011;11474;50.790;0.298;2023-12-22T09:07:32;10.60;;;1.80;;
22614;SDS011;11474;50.790;0.298;2023-12-22T09:09:58;9.13;;;2.13;;
22614;SDS011;11474;50.790;0.298;2023-12-22T09:12:24;10.57;;;2.00;;
22614;SDS011;11474;50.790;0.298;2023-12-22T09:14:50;8.65;;;1.63;;
22614;SDS011;11474;50.790;0.298;2023-12-22T09:17:16;8.93;;;1.83;;
22614;SDS011;11474;50.790;0.298;2023-12-22T09:19:43;12.38;;;2.33;;
22614;SDS011;11474;50.790;0.298;2023-12-22T09:22:09;12.63;;;2.17;;
22614;SDS011;11474;50.790;0.298;2023-12-22T09:24:35;8.70;;;1.85;;
22614;SDS011;11474;50.790;0.298;2023-12-22T09:27:01;9.07;;;2.13;;
22614;SDS011;11474;50.790;0.298;2023-12-22T09:29:30;8.93;;;1.85;;
22614;SDS011;11474;50.790;0.298;2023-12-22T09:32:00;5.70;;;1.60;;
22614;SDS011;11474;50.790;0.298;2023-12-22T09:34:26;4.97;;;1.35;;
22614;SDS011;11474;50.790;0.298;2023-12-22T09:36:53;4.32;;;1.30;;
22614;SDS011;11474;50.790;0.298;2023-12-22T09:39:19;10.30;;;1.75;;
22614;SDS011;11474;50.790;0.298;2023-12-22T09:41:47;10.80;;;1.70;;
22614;SDS011;11474;50.790;0.298;2023-12-22T09:44:15;5.43;;;1.50;;
22614;SDS011;11474;50.790;0.298;2023-12-22T09:46:42;4.50;;;1.60;;
22614;SDS011;11474;50.790;0.298;2023-12-22T09:49:08;6.18;;;1.60;;
22614;SDS011;11474;50.790;0.298;2023-12-22T09:51:34;7.72;;;1.58;;
22614;SDS011;11474;50.790;0.298;2023-12-22T09:54:01;7.70;;;1.38;;
22614;SDS011;11474;50.790;0.298;2023-12-22T09:56:29;8.93;;;1.90;;
22614;SDS011;11474;50.790;0.298;2023-12-22T09:58:55;9.57;;;2.25;;
22614;SDS011;11474;50.790;0.298;2023-12-22T10:01:22;8.45;;;1.90;;
22614;SDS011;11474;50.790;0.298;2023-12-22T10:03:48;11.30;;;2.43;;
22614;SDS011;11474;50.790;0.298;2023-12-22T10:06:15;10.80;;;2.50;;
22614;SDS011;11474;50.790;0.298;2023-12-22T10:08:42;6.57;;;1.73;;
22614;SDS011;11474;50.790;0.298;2023-12-22T10:11:09;14.40;;;2.58;;
22614;SDS011;11474;50.790;0.298;2023-12-22T10:13:37;11.55;;;2.40;;
22614;SDS011;11474;50.790;0.298;2023-12-22T10:16:05;14.55;;;2.53;;
22614;SDS011;11474;50.790;0.298;2023-12-22T10:18:32;12.05;;;2.30;;
22614;SDS011;11474;50.790;0.298;2023-12-22T10:20:58;10.93;;;2.55;;
22614;SDS011;11474;50.790;0.298;2023-12-22T10:23:26;12.27;;;2.72;;
22614;SDS011;11474;50.790;0.298;2023-12-22T10:25:52;16.08;;;2.83;;
22614;SDS011;11474;50.790;0.298;2023-12-22T10:28:18;10.60;;;2.53;;
22614;SDS011;11474;50.790;0.298;2023-12-22T10:30:49;11.77;;;2.63;;
22614;SDS011;11474;50.790;0.298;2023-12-22T10:33:17;13.63;;;3.28;;
22614;SDS011;11474;50.790;0.298;2023-12-22T10:35:43;9.85;;;2.67;;
22614;SDS011;11474;50.790;0.298;2023-12-22T10:38:10;13.02;;;3.13;;
22614;SDS011;11474;50.790;0.298;2023-12-22T10:40:37;19.92;;;3.33;;
22614;SDS011;11474;50.790;0.298;2023-12-22T10:43:04;15.95;;;2.33;;
22614;SDS011;11474;50.790;0.298;2023-12-22T10:45:30;14.35;;;2.72;;
22614;SDS011;11474;50.790;0.298;2023-12-22T10:47:57;13.02;;;2.53;;
22614;SDS011;11474;50.790;0.298;2023-12-22T10:50:24;11.35;;;2.40;;
22614;SDS011;11474;50.790;0.298;2023-12-22T10:52:51;15.32;;;3.30;;
22614;SDS011;11474;50.790;0.298;2023-12-22T10:55:17;18.33;;;3.25;;
22614;SDS011;11474;50.790;0.298;2023-12-22T10:57:46;13.82;;;2.95;;
22614;SDS011;11474;50.790;0.298;2023-12-22T11:00:13;17.13;;;3.00;;
22614;SDS011;11474;50.790;0.298;2023-12-22T11:02:41;15.98;;;2.90;;
22614;SDS011;11474;50.790;0.298;2023-12-22T11:05:09;10.73;;;2.97;;
22614;SDS011;11474;50.790;0.298;2023-12-22T11:07:37;14.35;;;3.30;;
22614;SDS011;11474;50.790;0.298;2023-12-22T11:10:06;16.33;;;2.97;;
22614;SDS011;11474;50.790;0.298;2023-12-22T11:12:33;14.10;;;3.20;;
22614;SDS011;11474;50.790;0.298;2023-12-22T11:15:00;12.03;;;2.70;;
22614;SDS011;11474;50.790;0.298;2023-12-22T11:17:28;17.75;;;3.03;;
22614;SDS011;11474;50.790;0.298;2023-12-22T11:19:54;18.27;;;3.60;;
22614;SDS011;11474;50.790;0.298;2023-12-22T11:22:22;14.57;;;2.97;;
22614;SDS011;11474;50.790;0.298;2023-12-22T11:24:48;12.15;;;2.65;;
22614;SDS011;11474;50.790;0.298;2023-12-22T11:27:17;11.40;;;2.53;;
22614;SDS011;11474;50.790;0.298;2023-12-22T11:29:47;11.23;;;2.85;;
22614;SDS011;11474;50.790;0.298;2023-12-22T11:32:19;10.75;;;2.50;;
22614;SDS011;11474;50.790;0.298;2023-12-22T11:34:45;10.88;;;2.47;;
22614;SDS011;11474;50.790;0.298;2023-12-22T11:37:12;12.05;;;3.15;;
22614;SDS011;11474;50.790;0.298;2023-12-22T11:39:39;14.20;;;2.95;;
22614;SDS011;11474;50.790;0.298;2023-12-22T11:42:06;10.30;;;2.42;;
22614;SDS011;11474;50.790;0.298;2023-12-22T11:44:33;16.42;;;2.85;;
22614;SDS011;11474;50.790;0.298;2023-12-22T11:47:05;10.23;;;2.10;;
22614;SDS011;11474;50.790;0.298;2023-12-22T11:49:32;14.85;;;3.20;;
22614;SDS011;11474;50.790;0.298;2023-12-22T11:51:59;11.83;;;2.77;;
22614;SDS011;11474;50.790;0.298;2023-12-22T11:59:55;15.73;;;3.00;;
22614;SDS011;11474;50.790;0.298;2023-12-22T12:02:22;9.27;;;2.33;;
22614;SDS011;11474;50.790;0.298;2023-12-22T12:04:48;15.60;;;2.67;;
22614;SDS011;11474;50.790;0.298;2023-12-22T12:09:59;12.63;;;2.60;;
22614;SDS011;11474;50.790;0.298;2023-12-22T12:12:25;7.88;;;2.25;;
22614;SDS011;11474;50.790;0.298;2023-12-22T12:14:52;13.63;;;2.92;;
22614;SDS011;11474;50.790;0.298;2023-12-22T12:17:21;7.15;;;1.90;;
22614;SDS011;11474;50.790;0.298;2023-12-22T12:19:48;14.32;;;2.42;;
22614;SDS011;11474;50.790;0.298;2023-12-22T12:22:14;12.48;;;2.58;;
22614;SDS011;11474;50.790;0.298;2023-12-22T12:24:41;10.95;;;2.17;;
22614;SDS011;11474;50.790;0.298;2023-12-22T12:27:07;8.95;;;1.95;;
22614;SDS011;11474;50.790;0.298;2023-12-22T12:29:33;11.63;;;2.60;;
22614;SDS011;11474;50.790;0.298;2023-12-22T12:32:06;13.68;;;2.60;;
22614;SDS011;11474;50.790;0.298;2023-12-22T12:34:32;13.25;;;2.60;;
22614;SDS011;11474;50.790;0.298;2023-12-22T12:36:58;10.65;;;2.58;;
22614;SDS011;11474;50.790;0.298;2023-12-22T12:39:24;12.68;;;2.50;;
22614;SDS011;11474;50.790;0.298;2023-12-22T12:41:54;11.83;;;2.23;;
22614;SDS011;11474;50.790;0.298;2023-12-22T12:44:22;10.68;;;2.30;;
22614;SDS011;11474;50.790;0.298;2023-12-22T12:46:49;8.98;;;2.10;;
22614;SDS011;11474;50.790;0.298;2023-12-22T12:49:15;9.50;;;2.23;;
22614;SDS011;11474;50.790;0.298;2023-12-22T12:51:42;12.05;;;2.67;;
22614;SDS011;11474;50.790;0.298;2023-12-22T12:54:09;10.65;;;2.05;;
22614;SDS011;11474;50.790;0.298;2023-12-22T12:56:42;8.45;;;2.08;;
22614;SDS011;11474;50.790;0.298;2023-12-22T12:59:11;9.77;;;2.25;;
22614;SDS011;11474;50.790;0.298;2023-12-22T13:01:41;11.90;;;2.65;;
22614;SDS011;11474;50.790;0.298;2023-12-22T13:04:07;11.55;;;2.35;;
22614;SDS011;11474;50.790;0.298;2023-12-22T13:06:34;10.50;;;2.20;;
22614;SDS011;11474;50.790;0.298;2023-12-22T13:09:00;14.13;;;2.50;;
22614;SDS011;11474;50.790;0.298;2023-12-22T13:11:27;9.82;;;2.35;;
22614;SDS011;11474;50.790;0.298;2023-12-22T13:13:53;9.75;;;2.30;;
22614;SDS011;11474;50.790;0.298;2023-12-22T13:16:20;10.13;;;2.60;;
22614;SDS011;11474;50.790;0.298;2023-12-22T13:18:47;11.10;;;2.35;;
22614;SDS011;11474;50.790;0.298;2023-12-22T13:21:13;6.72;;;2.20;;
22614;SDS011;11474;50.790;0.298;2023-12-22T13:23:40;10.40;;;2.60;;
22614;SDS011;11474;50.790;0.298;2023-12-22T13:26:06;10.27;;;2.22;;
22614;SDS011;11474;50.790;0.298;2023-12-22T13:28:32;12.57;;;2.75;;
22614;SDS011;11474;50.790;0.298;2023-12-22T13:30:58;9.77;;;2.13;;
22614;SDS011;11474;50.790;0.298;2023-12-22T13:33:24;9.48;;;2.13;;
22614;SDS011;11474;50.790;0.298;2023-12-22T13:35:56;14.90;;;3.10;;
22614;SDS011;11474;50.790;0.298;2023-12-22T13:38:23;14.98;;;2.53;;
22614;SDS011;11474;50.790;0.298;2023-12-22T13:40:49;6.47;;;2.05;;
22614;SDS011;11474;50.790;0.298;2023-12-22T13:43:15;12.82;;;2.75;;
22614;SDS011;11474;50.790;0.298;2023-12-22T13:45:41;13.15;;;2.50;;
22614;SDS011;11474;50.790;0.298;2023-12-22T13:48:07;14.90;;;2.97;;
22614;SDS011;11474;50.790;0.298;2023-12-22T13:50:36;7.85;;;2.47;;
22614;SDS011;11474;50.790;0.298;2023-12-22T13:53:08;12.77;;;2.60;;
22614;SDS011;11474;50.790;0.298;2023-12-22T13:55:35;14.40;;;2.53;;
22614;SDS011;11474;50.790;0.298;2023-12-22T13:58:02;15.10;;;2.83;;
22614;SDS011;11474;50.790;0.298;2023-12-22T14:00:32;10.02;;;2.75;;
22614;SDS011;11474;50.790;0.298;2023-12-22T14:02:58;13.27;;;2.78;;
22614;SDS011;11474;50.790;0.298;2023-12-22T14:05:24;9.07;;;1.92;;
22614;SDS011;11474;50.790;0.298;2023-12-22T14:07:51;13.20;;;2.75;;
22614;SDS011;11474;50.790;0.298;2023-12-22T14:10:18;10.45;;;2.65;;
22614;SDS011;11474;50.790;0.298;2023-12-22T14:12:44;8.47;;;2.23;;
22614;SDS011;11474;50.790;0.298;2023-12-22T14:15:10;8.73;;;2.20;;
22614;SDS011;11474;50.790;0.298;2023-12-22T14:17:37;12.50;;;2.38;;
22614;SDS011;11474;50.790;0.298;2023-12-22T14:20:03;10.50;;;2.83;;
22614;SDS011;11474;50.790;0.298;2023-12-22T14:22:30;13.35;;;3.10;;
22614;SDS011;11474;50.790;0.298;2023-12-22T14:24:56;14.52;;;2.58;;
22614;SDS011;11474;50.790;0.298;2023-12-22T14:27:25;11.82;;;2.42;;
22614;SDS011;11474;50.790;0.298;2023-12-22T14:29:51;12.47;;;2.80;;
22614;SDS011;11474;50.790;0.298;2023-12-22T14:32:17;9.82;;;2.13;;
22614;SDS011;11474;50.790;0.298;2023-12-22T14:34:47;12.88;;;2.85;;
22614;SDS011;11474;50.790;0.298;2023-12-22T14:37:14;9.80;;;2.25;;
22614;SDS011;11474;50.790;0.298;2023-12-22T14:39:43;13.23;;;2.92;;
22614;SDS011;11474;50.790;0.298;2023-12-22T14:42:12;17.35;;;3.55;;
22614;SDS011;11474;50.790;0.298;2023-12-22T14:44:38;14.38;;;2.80;;